sensor_id;sensor_type;location;lat;lon;timestamp;P1;durP1;ratioP1;P2;durP2;ratioP2
6249;SDS011;3158;52.148;11.568;2024-01-10T00:04:35;10.47;;;4.37;;
6249;SDS011;3158;52.148;11.568;2024-01-10T00:09:36;9.07;;;4.83;;
6249;SDS011;3158;52.148;11.568;2024-01-10T00:14:37;16.77;;;5.27;;
6249;SDS011;3158;52.148;11.568;2024-01-10T00:19:38;17.17;;;4.73;;
6249;SDS011;3158;52.148;11.568;2024-01-10T00:24:39;9.07;;;5.07;;
6249;SDS011;3158;52.148;11.568;2024-01-10T00:29:40;7.30;;;4.30;;
6249;SDS011;3158;52.148;11.568;2024-01-10T00:34:41;10.67;;;4.13;;
6249;SDS011;3158;52.148;11.568;2024-01-10T00:39:42;15.53;;;5.27;;
6249;SDS011;3158;52.148;11.568;2024-01-10T00:44:43;14.80;;;5.43;;
6249;SDS011;3158;52.148;11.568;2024-01-10T00:49:44;16.10;;;5.10;;
6249;SDS011;3158;52.148;11.568;2024-01-10T00:54:45;6.53;;;4.17;;
6249;SDS011;3158;52.148;11.568;2024-01-10T00:59:46;10.57;;;5.13;;
6249;SDS011;3158;52.148;11.568;2024-01-10T01:04:47;10.57;;;5.53;;
6249;SDS011;3158;52.148;11.568;2024-01-10T01:09:48;15.43;;;4.53;;
6249;SDS011;3158;52.148;11.568;2024-01-10T01:14:49;17.83;;;5.30;;
6249;SDS011;3158;52.148;11.568;2024-01-10T01:19:50;11.60;;;4.57;;
6249;SDS011;3158;52.148;11.568;2024-01-10T01:24:50;14.53;;;4.27;;
6249;SDS011;3158;52.148;11.568;2024-01-10T01:29:51;7.73;;;4.13;;
6249;SDS011;3158;52.148;11.568;2024-01-10T01:34:52;7.37;;;3.27;;
6249;SDS011;3158;52.148;11.568;2024-01-10T01:39:53;7.37;;;4.80;;
6249;SDS011;3158;52.148;11.568;2024-01-10T01:44:54;8.60;;;4.80;;
6249;SDS011;3158;52.148;11.568;2024-01-10T01:49:55;10.27;;;5.70;;
6249;SDS011;3158;52.148;11.568;2024-01-10T01:54:56;15.23;;;5.83;;
6249;SDS011;3158;52.148;11.568;2024-01-10T01:59:58;9.47;;;5.73;;
6249;SDS011;3158;52.148;11.568;2024-01-10T02:04:59;11.90;;;5.70;;
6249;SDS011;3158;52.148;11.568;2024-01-10T02:10:00;12.97;;;5.57;;
6249;SDS011;3158;52.148;11.568;2024-01-10T02:15:01;13.57;;;6.83;;
6249;SDS011;3158;52.148;11.568;2024-01-10T02:20:10;12.47;;;6.37;;
6249;SDS011;3158;52.148;11.568;2024-01-10T02:25:11;25.90;;;7.00;;
6249;SDS011;3158;52.148;11.568;2024-01-10T02:30:13;17.27;;;6.67;;
6249;SDS011;3158;52.148;11.568;2024-01-10T02:35:14;11.10;;;4.50;;
6249;SDS011;3158;52.148;11.568;2024-01-10T02:40:15;12.17;;;6.37;;
6249;SDS011;3158;52.148;11.568;2024-01-10T02:45:16;30.90;;;6.40;;
6249;SDS011;3158;52.148;11.568;2024-01-10T02:50:17;14.10;;;6.20;;
6249;SDS011;3158;52.148;11.568;2024-01-10T02:55:18;8.67;;;4.47;;
6249;SDS011;3158;52.148;11.568;2024-01-10T03:00:19;12.33;;;4.70;;
6249;SDS011;3158;52.148;11.568;2024-01-10T03:05:20;9.53;;;5.90;;
6249;SDS011;3158;52.148;11.568;2024-01-10T03:10:21;15.87;;;6.00;;
6249;SDS011;3158;52.148;11.568;2024-01-10T03:15:22;24.27;;;6.33;;
6249;SDS011;3158;52.148;11.568;2024-01-10T03:20:23;11.83;;;5.87;;
6249;SDS011;3158;52.148;11.568;2024-01-10T03:25:24;6.50;;;3.73;;
6249;SDS011;3158;52.148;11.568;2024-01-10T03:30:25;12.47;;;6.37;;
6249;SDS011;3158;52.148;11.568;2024-01-10T03:35:26;11.77;;;5.63;;
6249;SDS011;3158;52.148;11.568;2024-01-10T03:40:27;10.63;;;6.07;;
6249;SDS011;3158;52.148;11.568;2024-01-10T03:45:28;17.13;;;7.90;;
6249;SDS011;3158;52.148;11.568;2024-01-10T03:50:29;13.60;;;4.77;;
6249;SDS011;3158;52.148;11.568;2024-01-10T03:55:30;14.67;;;5.67;;
6249;SDS011;3158;52.148;11.568;2024-01-10T04:00:31;13.17;;;5.70;;
6249;SDS011;3158;52.148;11.568;2024-01-10T04:05:32;12.07;;;5.83;;
6249;SDS011;3158;52.148;11.568;2024-01-10T04:10:33;13.30;;;5.90;;
6249;SDS011;3158;52.148;11.568;2024-01-10T04:15:34;5.77;;;4.87;;
6249;SDS011;3158;52.148;11.568;2024-01-10T04:20:35;13.43;;;6.57;;
6249;SDS011;3158;52.148;11.568;2024-01-10T04:25:36;15.17;;;6.53;;
6249;SDS011;3158;52.148;11.568;2024-01-10T04:30:37;9.57;;;4.97;;
6249;SDS011;3158;52.148;11.568;2024-01-10T04:35:38;10.50;;;6.40;;
6249;SDS011;3158;52.148;11.568;2024-01-10T04:40:39;13.20;;;5.13;;
6249;SDS011;3158;52.148;11.568;2024-01-10T04:45:40;10.93;;;6.37;;
6249;SDS011;3158;52.148;11.568;2024-01-10T04:50:41;14.23;;;5.50;;
6249;SDS011;3158;52.148;11.568;2024-01-10T04:55:42;10.80;;;7.40;;
6249;SDS011;3158;52.148;11.568;2024-01-10T05:00:43;19.60;;;5.83;;
6249;SDS011;3158;52.148;11.568;2024-01-10T05:05:44;12.37;;;6.07;;
6249;SDS011;3158;52.148;11.568;2024-01-10T05:10:45;18.03;;;7.57;;
6249;SDS011;3158;52.148;11.568;2024-01-10T05:15:46;11.27;;;6.13;;
6249;SDS011;3158;52.148;11.568;2024-01-10T05:20:47;10.47;;;5.60;;
6249;SDS011;3158;52.148;11.568;2024-01-10T05:25:48;10.63;;;6.87;;
6249;SDS011;3158;52.148;11.568;2024-01-10T05:30:49;15.83;;;7.00;;
6249;SDS011;3158;52.148;11.568;2024-01-10T05:35:51;17.50;;;7.43;;
6249;SDS011;3158;52.148;11.568;2024-01-10T05:40:52;8.30;;;4.20;;
6249;SDS011;3158;52.148;11.568;2024-01-10T05:45:53;14.10;;;6.53;;
6249;SDS011;3158;52.148;11.568;2024-01-10T05:50:54;26.90;;;6.63;;
6249;SDS011;3158;52.148;11.568;2024-01-10T05:55:55;15.37;;;5.97;;
6249;SDS011;3158;52.148;11.568;2024-01-10T06:00:56;14.43;;;5.50;;
6249;SDS011;3158;52.148;11.568;2024-01-10T06:05:57;24.13;;;6.50;;
6249;SDS011;3158;52.148;11.568;2024-01-10T06:10:58;8.33;;;6.10;;
6249;SDS011;3158;52.148;11.568;2024-01-10T06:15:59;11.73;;;5.47;;
6249;SDS011;3158;52.148;11.568;2024-01-10T06:21:00;8.47;;;4.67;;
6249;SDS011;3158;52.148;11.568;2024-01-10T06:26:01;15.40;;;8.17;;
6249;SDS011;3158;52.148;11.568;2024-01-10T06:31:02;10.30;;;6.27;;
6249;SDS011;3158;52.148;11.568;2024-01-10T06:36:03;13.93;;;5.47;;
6249;SDS011;3158;52.148;11.568;2024-01-10T06:41:07;19.37;;;7.07;;
6249;SDS011;3158;52.148;11.568;2024-01-10T06:46:09;13.53;;;5.57;;
6249;SDS011;3158;52.148;11.568;2024-01-10T06:51:14;9.43;;;5.63;;
6249;SDS011;3158;52.148;11.568;2024-01-10T06:56:15;19.80;;;6.73;;
6249;SDS011;3158;52.148;11.568;2024-01-10T07:01:16;11.07;;;4.37;;
6249;SDS011;3158;52.148;11.568;2024-01-10T07:06:17;11.80;;;5.47;;
6249;SDS011;3158;52.148;11.568;2024-01-10T07:11:19;6.57;;;5.97;;
6249;SDS011;3158;52.148;11.568;2024-01-10T07:16:20;7.40;;;5.07;;
6249;SDS011;3158;52.148;11.568;2024-01-10T07:21:22;12.33;;;6.00;;
6249;SDS011;3158;52.148;11.568;2024-01-10T07:26:23;10.33;;;7.43;;
6249;SDS011;3158;52.148;11.568;2024-01-10T07:31:24;20.20;;;5.87;;
6249;SDS011;3158;52.148;11.568;2024-01-10T07:36:26;14.77;;;5.73;;
6249;SDS011;3158;52.148;11.568;2024-01-10T07:41:29;7.30;;;4.87;;
6249;SDS011;3158;52.148;11.568;2024-01-10T07:46:30;12.80;;;7.47;;
6249;SDS011;3158;52.148;11.568;2024-01-10T07:51:31;8.60;;;6.50;;
6249;SDS011;3158;52.148;11.568;2024-01-10T07:56:35;25.13;;;8.57;;
6249;SDS011;3158;52.148;11.568;2024-01-10T08:01:36;15.10;;;6.33;;
6249;SDS011;3158;52.148;11.568;2024-01-10T08:06:37;20.13;;;7.37;;
6249;SDS011;3158;52.148;11.568;2024-01-10T08:11:38;17.77;;;8.23;;
6249;SDS011;3158;52.148;11.568;2024-01-10T08:16:39;19.13;;;7.57;;
6249;SDS011;3158;52.148;11.568;2024-01-10T08:21:40;24.57;;;8.53;;
6249;SDS011;3158;52.148;11.568;2024-01-10T08:26:41;23.20;;;9.57;;
6249;SDS011;3158;52.148;11.568;2024-01-10T08:31:42;13.70;;;7.10;;
6249;SDS011;3158;52.148;11.568;2024-01-10T08:36:43;24.97;;;10.33;;
6249;SDS011;3158;52.148;11.568;2024-01-10T08:41:44;19.93;;;10.93;;
6249;SDS011;3158;52.148;11.568;2024-01-10T08:46:45;12.90;;;8.13;;
6249;SDS011;3158;52.148;11.568;2024-01-10T08:51:46;25.53;;;10.20;;
6249;SDS011;3158;52.148;11.568;2024-01-10T08:56:47;27.47;;;12.50;;
6249;SDS011;3158;52.148;11.568;2024-01-10T09:01:48;30.47;;;10.27;;
6249;SDS011;3158;52.148;11.568;2024-01-10T09:06:49;26.07;;;12.97;;
6249;SDS011;3158;52.148;11.568;2024-01-10T09:11:50;23.93;;;9.97;;
6249;SDS011;3158;52.148;11.568;2024-01-10T09:16:51;23.60;;;11.27;;
6249;SDS011;3158;52.148;11.568;2024-01-10T09:21:52;48.07;;;11.97;;
6249;SDS011;3158;52.148;11.568;2024-01-10T09:26:53;36.90;;;11.77;;
6249;SDS011;3158;52.148;11.568;2024-01-10T09:31:54;36.40;;;14.00;;
6249;SDS011;3158;52.148;11.568;2024-01-10T09:36:56;33.37;;;13.03;;
6249;SDS011;3158;52.148;11.568;2024-01-10T09:41:57;34.90;;;14.17;;
6249;SDS011;3158;52.148;11.568;2024-01-10T09:46:58;38.60;;;13.53;;
6249;SDS011;3158;52.148;11.568;2024-01-10T09:52:03;34.43;;;14.20;;
6249;SDS011;3158;52.148;11.568;2024-01-10T09:57:04;37.80;;;14.07;;
6249;SDS011;3158;52.148;11.568;2024-01-10T10:02:05;27.07;;;12.63;;
6249;SDS011;3158;52.148;11.568;2024-01-10T10:07:06;37.03;;;16.27;;
6249;SDS011;3158;52.148;11.568;2024-01-10T10:12:07;39.50;;;15.27;;
6249;SDS011;3158;52.148;11.568;2024-01-10T10:17:18;44.57;;;17.40;;
6249;SDS011;3158;52.148;11.568;2024-01-10T10:22:19;38.33;;;15.60;;
6249;SDS011;3158;52.148;11.568;2024-01-10T10:27:20;36.97;;;17.48;;
6249;SDS011;3158;52.148;11.568;2024-01-10T10:32:21;42.97;;;16.83;;
6249;SDS011;3158;52.148;11.568;2024-01-10T10:37:22;36.00;;;16.02;;
6249;SDS011;3158;52.148;11.568;2024-01-10T10:42:23;31.27;;;15.75;;
6249;SDS011;3158;52.148;11.568;2024-01-10T10:47:24;37.88;;;16.38;;
6249;SDS011;3158;52.148;11.568;2024-01-10T10:52:27;31.38;;;15.52;;
6249;SDS011;3158;52.148;11.568;2024-01-10T10:57:28;35.10;;;16.15;;
6249;SDS011;3158;52.148;11.568;2024-01-10T11:02:29;36.75;;;15.45;;
6249;SDS011;3158;52.148;11.568;2024-01-10T11:07:30;34.33;;;15.75;;
6249;SDS011;3158;52.148;11.568;2024-01-10T11:12:35;38.65;;;15.98;;
6249;SDS011;3158;52.148;11.568;2024-01-10T11:17:43;37.92;;;15.18;;
6249;SDS011;3158;52.148;11.568;2024-01-10T11:22:53;37.55;;;16.10;;
6249;SDS011;3158;52.148;11.568;2024-01-10T11:28:01;39.63;;;16.20;;
6249;SDS011;3158;52.148;11.568;2024-01-10T11:33:22;35.53;;;15.73;;
6249;SDS011;3158;52.148;11.568;2024-01-10T11:38:23;39.92;;;16.02;;
6249;SDS011;3158;52.148;11.568;2024-01-10T11:43:24;45.35;;;17.05;;
6249;SDS011;3158;52.148;11.568;2024-01-10T11:48:29;37.30;;;17.38;;
6249;SDS011;3158;52.148;11.568;2024-01-10T11:53:38;40.55;;;17.67;;
6249;SDS011;3158;52.148;11.568;2024-01-10T11:58:55;38.80;;;16.67;;
6249;SDS011;3158;52.148;11.568;2024-01-10T12:03:56;42.90;;;16.05;;
6249;SDS011;3158;52.148;11.568;2024-01-10T12:08:58;39.40;;;16.75;;
6249;SDS011;3158;52.148;11.568;2024-01-10T12:13:59;37.92;;;16.15;;
6249;SDS011;3158;52.148;11.568;2024-01-10T12:19:00;34.30;;;16.08;;
6249;SDS011;3158;52.148;11.568;2024-01-10T12:24:03;39.33;;;16.38;;
6249;SDS011;3158;52.148;11.568;2024-01-10T12:29:05;39.53;;;16.83;;
6249;SDS011;3158;52.148;11.568;2024-01-10T12:34:06;33.95;;;14.88;;
6249;SDS011;3158;52.148;11.568;2024-01-10T12:39:09;34.90;;;16.10;;
6249;SDS011;3158;52.148;11.568;2024-01-10T12:44:10;38.85;;;17.15;;
6249;SDS011;3158;52.148;11.568;2024-01-10T12:49:11;42.03;;;16.23;;
6249;SDS011;3158;52.148;11.568;2024-01-10T12:54:16;46.45;;;17.80;;
6249;SDS011;3158;52.148;11.568;2024-01-10T12:59:20;36.58;;;15.35;;
6249;SDS011;3158;52.148;11.568;2024-01-10T13:04:21;35.30;;;16.60;;
6249;SDS011;3158;52.148;11.568;2024-01-10T13:09:22;39.17;;;17.02;;
6249;SDS011;3158;52.148;11.568;2024-01-10T13:14:23;27.98;;;13.77;;
6249;SDS011;3158;52.148;11.568;2024-01-10T13:19:24;39.60;;;15.63;;
6249;SDS011;3158;52.148;11.568;2024-01-10T13:24:25;30.88;;;14.23;;
6249;SDS011;3158;52.148;11.568;2024-01-10T13:29:26;43.28;;;14.98;;
6249;SDS011;3158;52.148;11.568;2024-01-10T13:34:26;36.63;;;16.50;;
6249;SDS011;3158;52.148;11.568;2024-01-10T13:39:27;40.17;;;14.55;;
6249;SDS011;3158;52.148;11.568;2024-01-10T13:44:28;34.75;;;15.30;;
6249;SDS011;3158;52.148;11.568;2024-01-10T13:49:29;33.72;;;15.07;;
6249;SDS011;3158;52.148;11.568;2024-01-10T13:54:31;28.10;;;12.95;;
6249;SDS011;3158;52.148;11.568;2024-01-10T13:59:32;40.25;;;15.40;;
6249;SDS011;3158;52.148;11.568;2024-01-10T14:04:33;39.00;;;13.75;;
6249;SDS011;3158;52.148;11.568;2024-01-10T14:09:34;29.75;;;14.40;;
6249;SDS011;3158;52.148;11.568;2024-01-10T14:14:34;35.47;;;14.23;;
6249;SDS011;3158;52.148;11.568;2024-01-10T14:19:35;29.65;;;12.77;;
6249;SDS011;3158;52.148;11.568;2024-01-10T14:24:36;31.50;;;15.20;;
6249;SDS011;3158;52.148;11.568;2024-01-10T14:29:38;32.50;;;13.38;;
6249;SDS011;3158;52.148;11.568;2024-01-10T14:34:39;30.17;;;13.88;;
6249;SDS011;3158;52.148;11.568;2024-01-10T14:39:41;31.27;;;12.82;;
6249;SDS011;3158;52.148;11.568;2024-01-10T14:44:42;31.25;;;12.90;;
6249;SDS011;3158;52.148;11.568;2024-01-10T14:49:43;27.27;;;13.13;;
6249;SDS011;3158;52.148;11.568;2024-01-10T14:54:44;23.58;;;13.07;;
6249;SDS011;3158;52.148;11.568;2024-01-10T14:59:45;25.88;;;11.98;;
6249;SDS011;3158;52.148;11.568;2024-01-10T15:04:46;25.98;;;11.63;;
6249;SDS011;3158;52.148;11.568;2024-01-10T15:09:47;29.20;;;13.65;;
6249;SDS011;3158;52.148;11.568;2024-01-10T15:14:48;30.90;;;12.40;;
6249;SDS011;3158;52.148;11.568;2024-01-10T15:19:49;17.52;;;10.23;;
6249;SDS011;3158;52.148;11.568;2024-01-10T15:24:50;23.95;;;11.20;;
6249;SDS011;3158;52.148;11.568;2024-01-10T15:29:51;28.33;;;12.40;;
6249;SDS011;3158;52.148;11.568;2024-01-10T15:34:52;28.35;;;11.90;;
6249;SDS011;3158;52.148;11.568;2024-01-10T15:39:52;30.20;;;11.47;;
6249;SDS011;3158;52.148;11.568;2024-01-10T15:44:53;21.88;;;11.02;;
6249;SDS011;3158;52.148;11.568;2024-01-10T15:49:54;26.00;;;10.25;;
6249;SDS011;3158;52.148;11.568;2024-01-10T15:54:57;26.97;;;11.20;;
6249;SDS011;3158;52.148;11.568;2024-01-10T15:59:58;28.80;;;11.80;;
6249;SDS011;3158;52.148;11.568;2024-01-10T16:04:59;27.20;;;11.77;;
6249;SDS011;3158;52.148;11.568;2024-01-10T16:10:00;31.20;;;12.30;;
6249;SDS011;3158;52.148;11.568;2024-01-10T16:15:01;29.92;;;13.77;;
6249;SDS011;3158;52.148;11.568;2024-01-10T16:20:02;28.63;;;11.67;;
6249;SDS011;3158;52.148;11.568;2024-01-10T16:25:05;26.97;;;10.47;;
6249;SDS011;3158;52.148;11.568;2024-01-10T16:30:06;27.87;;;10.13;;
6249;SDS011;3158;52.148;11.568;2024-01-10T16:35:08;26.60;;;10.97;;
6249;SDS011;3158;52.148;11.568;2024-01-10T16:40:10;26.00;;;11.50;;
6249;SDS011;3158;52.148;11.568;2024-01-10T16:45:11;23.83;;;10.70;;
6249;SDS011;3158;52.148;11.568;2024-01-10T16:50:12;21.40;;;9.73;;
6249;SDS011;3158;52.148;11.568;2024-01-10T16:55:13;26.27;;;9.20;;
6249;SDS011;3158;52.148;11.568;2024-01-10T17:00:15;27.93;;;9.97;;
6249;SDS011;3158;52.148;11.568;2024-01-10T17:05:16;29.43;;;9.97;;
6249;SDS011;3158;52.148;11.568;2024-01-10T17:10:19;24.10;;;11.97;;
6249;SDS011;3158;52.148;11.568;2024-01-10T17:15:20;29.17;;;10.60;;
6249;SDS011;3158;52.148;11.568;2024-01-10T17:20:21;25.50;;;11.27;;
6249;SDS011;3158;52.148;11.568;2024-01-10T17:25:23;24.97;;;11.13;;
6249;SDS011;3158;52.148;11.568;2024-01-10T17:30:24;25.53;;;11.03;;
6249;SDS011;3158;52.148;11.568;2024-01-10T17:35:27;31.73;;;11.90;;
6249;SDS011;3158;52.148;11.568;2024-01-10T17:40:28;21.50;;;10.33;;
6249;SDS011;3158;52.148;11.568;2024-01-10T17:45:29;25.07;;;12.03;;
6249;SDS011;3158;52.148;11.568;2024-01-10T17:50:30;36.13;;;14.77;;
6249;SDS011;3158;52.148;11.568;2024-01-10T17:55:31;33.80;;;12.90;;
6249;SDS011;3158;52.148;11.568;2024-01-10T18:00:32;30.93;;;12.37;;
6249;SDS011;3158;52.148;11.568;2024-01-10T18:05:33;41.27;;;15.23;;
6249;SDS011;3158;52.148;11.568;2024-01-10T18:10:38;44.57;;;14.30;;
6249;SDS011;3158;52.148;11.568;2024-01-10T18:15:40;32.90;;;13.53;;
6249;SDS011;3158;52.148;11.568;2024-01-10T18:20:42;39.47;;;13.50;;
6249;SDS011;3158;52.148;11.568;2024-01-10T18:25:43;31.37;;;11.63;;
6249;SDS011;3158;52.148;11.568;2024-01-10T18:30:46;36.70;;;14.83;;
6249;SDS011;3158;52.148;11.568;2024-01-10T18:35:47;33.97;;;15.57;;
6249;SDS011;3158;52.148;11.568;2024-01-10T18:40:50;28.23;;;11.97;;
6249;SDS011;3158;52.148;11.568;2024-01-10T18:45:52;34.27;;;13.40;;
6249;SDS011;3158;52.148;11.568;2024-01-10T18:50:53;30.13;;;11.37;;
6249;SDS011;3158;52.148;11.568;2024-01-10T18:55:54;36.80;;;11.93;;
6249;SDS011;3158;52.148;11.568;2024-01-10T19:00:55;22.47;;;10.10;;
6249;SDS011;3158;52.148;11.568;2024-01-10T19:05:56;21.70;;;10.47;;
6249;SDS011;3158;52.148;11.568;2024-01-10T19:10:57;28.53;;;11.63;;
6249;SDS011;3158;52.148;11.568;2024-01-10T19:15:58;20.87;;;9.27;;
6249;SDS011;3158;52.148;11.568;2024-01-10T19:20:59;31.17;;;12.70;;
6249;SDS011;3158;52.148;11.568;2024-01-10T19:26:00;33.13;;;11.37;;
6249;SDS011;3158;52.148;11.568;2024-01-10T19:31:02;36.97;;;12.80;;
6249;SDS011;3158;52.148;11.568;2024-01-10T19:36:03;32.63;;;12.40;;
6249;SDS011;3158;52.148;11.568;2024-01-10T19:41:04;39.90;;;11.90;;
6249;SDS011;3158;52.148;11.568;2024-01-10T19:46:05;47.83;;;13.50;;
6249;SDS011;3158;52.148;11.568;2024-01-10T19:51:06;43.20;;;13.93;;
6249;SDS011;3158;52.148;11.568;2024-01-10T19:56:07;26.23;;;10.43;;
6249;SDS011;3158;52.148;11.568;2024-01-10T20:01:08;37.57;;;13.07;;
6249;SDS011;3158;52.148;11.568;2024-01-10T20:06:10;27.60;;;11.80;;
6249;SDS011;3158;52.148;11.568;2024-01-10T20:11:11;30.70;;;12.93;;
6249;SDS011;3158;52.148;11.568;2024-01-10T20:16:12;30.57;;;9.87;;
6249;SDS011;3158;52.148;11.568;2024-01-10T20:21:14;31.93;;;10.23;;
6249;SDS011;3158;52.148;11.568;2024-01-10T20:26:15;24.33;;;10.13;;
6249;SDS011;3158;52.148;11.568;2024-01-10T20:31:16;21.17;;;10.90;;
6249;SDS011;3158;52.148;11.568;2024-01-10T20:36:17;25.43;;;10.30;;
6249;SDS011;3158;52.148;11.568;2024-01-10T20:41:18;20.87;;;8.53;;
6249;SDS011;3158;52.148;11.568;2024-01-10T20:46:19;17.60;;;8.47;;
6249;SDS011;3158;52.148;11.568;2024-01-10T20:51:20;29.63;;;10.40;;
6249;SDS011;3158;52.148;11.568;2024-01-10T20:56:21;23.10;;;9.53;;
6249;SDS011;3158;52.148;11.568;2024-01-10T21:01:22;19.67;;;9.77;;
6249;SDS011;3158;52.148;11.568;2024-01-10T21:06:23;22.53;;;8.87;;
6249;SDS011;3158;52.148;11.568;2024-01-10T21:11:24;20.07;;;9.80;;
6249;SDS011;3158;52.148;11.568;2024-01-10T21:16:25;18.77;;;8.63;;
6249;SDS011;3158;52.148;11.568;2024-01-10T21:21:26;24.40;;;8.23;;
6249;SDS011;3158;52.148;11.568;2024-01-10T21:26:27;25.27;;;10.10;;
6249;SDS011;3158;52.148;11.568;2024-01-10T21:31:28;22.23;;;8.03;;
6249;SDS011;3158;52.148;11.568;2024-01-10T21:36:30;26.53;;;8.97;;
6249;SDS011;3158;52.148;11.568;2024-01-10T21:41:32;16.77;;;8.77;;
6249;SDS011;3158;52.148;11.568;2024-01-10T21:46:33;21.63;;;8.97;;
6249;SDS011;3158;52.148;11.568;2024-01-10T21:51:34;27.80;;;10.30;;
6249;SDS011;3158;52.148;11.568;2024-01-10T21:56:35;25.10;;;9.43;;
6249;SDS011;3158;52.148;11.568;2024-01-10T22:01:36;17.53;;;8.20;;
6249;SDS011;3158;52.148;11.568;2024-01-10T22:06:37;14.50;;;7.63;;
6249;SDS011;3158;52.148;11.568;2024-01-10T22:11:39;17.33;;;6.77;;
6249;SDS011;3158;52.148;11.568;2024-01-10T22:16:39;17.63;;;8.40;;
6249;SDS011;3158;52.148;11.568;2024-01-10T22:21:40;14.60;;;8.10;;
6249;SDS011;3158;52.148;11.568;2024-01-10T22:26:41;16.83;;;7.57;;
6249;SDS011;3158;52.148;11.568;2024-01-10T22:31:42;20.80;;;7.57;;
6249;SDS011;3158;52.148;11.568;2024-01-10T22:36:43;14.97;;;6.47;;
6249;SDS011;3158;52.148;11.568;2024-01-10T22:41:44;13.33;;;7.63;;
6249;SDS011;3158;52.148;11.568;2024-01-10T22:46:45;19.17;;;7.77;;
6249;SDS011;3158;52.148;11.568;2024-01-10T22:51:46;14.73;;;7.47;;
6249;SDS011;3158;52.148;11.568;2024-01-10T22:56:47;14.07;;;6.90;;
6249;SDS011;3158;52.148;11.568;2024-01-10T23:01:48;10.67;;;6.93;;
6249;SDS011;3158;52.148;11.568;2024-01-10T23:06:49;9.90;;;5.60;;
6249;SDS011;3158;52.148;11.568;2024-01-10T23:11:50;12.07;;;6.10;;
6249;SDS011;3158;52.148;11.568;2024-01-10T23:16:51;10.70;;;6.93;;
6249;SDS011;3158;52.148;11.568;2024-01-10T23:21:52;10.83;;;6.53;;
6249;SDS011;3158;52.148;11.568;2024-01-10T23:26:54;16.10;;;6.33;;
6249;SDS011;3158;52.148;11.568;2024-01-10T23:31:55;12.77;;;6.10;;
6249;SDS011;3158;52.148;11.568;2024-01-10T23:36:57;18.83;;;6.57;;
6249;SDS011;3158;52.148;11.568;2024-01-10T23:41:57;21.77;;;7.17;;
6249;SDS011;3158;52.148;11.568;2024-01-10T23:46:58;16.20;;;6.57;;
6249;SDS011;3158;52.148;11.568;2024-01-10T23:51:59;19.93;;;7.70;;
6249;SDS011;3158;52.148;11.568;2024-01-10T23:57:00;13.53;;;7.40;;
